createdAt,value
2022-08-22T01:20:51.128Z,77.96
2022-08-22T01:23:40.626Z,77.67
2022-08-22T01:26:33.369Z,77.78
2022-08-22T01:29:43.201Z,77.64
2022-08-22T01:32:43.239Z,77.72
2022-08-22T01:35:33.621Z,77.76
2022-08-22T01:38:18.942Z,78.38
2022-08-22T01:41:07.033Z,78.55
2022-08-22T01:43:59.930Z,78.70
2022-08-22T01:46:49.322Z,78.43
2022-08-22T01:49:45.429Z,78.57
2022-08-22T01:52:30.180Z,78.75
2022-08-22T01:55:27.292Z,78.73
2022-08-22T01:58:03.963Z,78.40
2022-08-22T02:00:52.253Z,78.21
2022-08-22T02:03:55.873Z,78.34
2022-08-22T02:06:56.480Z,78.14
2022-08-22T02:09:57.087Z,77.85
2022-08-22T02:13:04.626Z,78.10
2022-08-22T02:15:39.538Z,78.13
2022-08-22T02:18:10.544Z,78.28
2022-08-22T02:20:47.956Z,78.24
2022-08-22T02:23:53.217Z,78.04
2022-08-22T02:26:44.778Z,77.87
2022-08-22T02:29:30.087Z,77.84
2022-08-22T02:32:16.204Z,77.75
2022-08-22T02:35:11.177Z,77.87
2022-08-22T02:38:08.847Z,78.07
2022-08-22T02:41:01.256Z,77.92
2022-08-22T02:43:52.322Z,78.00
2022-08-22T02:46:52.825Z,77.83
2022-08-22T02:49:43.632Z,78.08
2022-08-22T02:56:48.612Z,78.10
2022-08-22T02:59:33.075Z,78.22
2022-08-22T03:02:29.416Z,78.32
2022-08-22T03:05:15.996Z,78.84
2022-08-22T03:08:05.941Z,78.76
2022-08-22T03:10:41.388Z,78.77
2022-08-22T03:13:17.833Z,78.96
2022-08-22T03:15:57.275Z,78.94
2022-08-22T03:18:33.752Z,79.32
2022-08-22T03:21:42.260Z,79.08
2022-08-22T03:24:26.715Z,79.28
2022-08-22T03:27:32.444Z,79.51
2022-08-22T03:30:07.653Z,79.48
2022-08-22T03:32:57.336Z,79.87
2022-08-22T03:35:39.790Z,80.56
2022-08-22T03:38:40.838Z,80.84
2022-08-22T03:41:46.417Z,80.43
2022-08-22T03:44:47.075Z,80.26
2022-08-22T03:47:49.933Z,80.73
2022-08-22T03:50:57.360Z,80.68
2022-08-22T03:53:41.695Z,81.26
2022-08-22T03:56:41.580Z,81.28
2022-08-22T03:59:51.801Z,81.02
2022-08-22T04:03:10.408Z,81.05
2022-08-22T04:06:04.842Z,80.93
2022-08-22T04:09:05.072Z,81.05
2022-08-22T04:11:50.206Z,80.43
2022-08-22T04:14:41.085Z,80.53
2022-08-22T04:17:50.709Z,80.61
2022-08-22T04:20:38.173Z,80.73
2022-08-22T04:23:29.947Z,80.82
2022-08-22T04:26:12.372Z,80.55
2022-08-22T04:28:57.559Z,80.45
2022-08-22T04:31:48.174Z,80.29
2022-08-22T04:34:38.976Z,80.24
2022-08-22T04:37:20.004Z,80.03
2022-08-22T04:40:04.491Z,79.77
2022-08-22T04:42:41.738Z,79.73
2022-08-22T04:45:34.017Z,80.16
2022-08-22T04:48:17.132Z,79.93
2022-08-22T04:51:24.876Z,80.02
2022-08-22T04:54:19.223Z,79.84
2022-08-22T04:57:32.993Z,79.92
2022-08-22T05:00:08.731Z,79.41
2022-08-22T05:02:44.761Z,79.60
2022-08-22T05:05:28.946Z,79.32
2022-08-22T05:08:03.102Z,79.42
2022-08-22T05:10:41.492Z,79.64
2022-08-22T05:13:18.505Z,79.97
2022-08-22T05:15:52.811Z,80.30
2022-08-22T05:18:29.616Z,80.32
2022-08-22T05:21:07.426Z,80.40
2022-08-22T05:23:53.391Z,80.20
2022-08-22T05:26:23.210Z,79.86
2022-08-22T05:29:03.089Z,79.78
2022-08-22T05:31:39.424Z,79.50
2022-08-22T05:34:16.972Z,79.14
2022-08-22T05:36:56.306Z,79.28
2022-08-22T05:39:28.335Z,79.26
2022-08-22T05:42:01.559Z,79.11
2022-08-22T05:44:38.182Z,79.02
2022-08-22T05:47:42.465Z,78.72
2022-08-22T05:50:33.365Z,78.39
2022-08-22T05:53:15.211Z,78.09
2022-08-22T05:56:12.814Z,78.18
2022-08-22T05:58:47.585Z,77.72
2022-08-22T06:01:21.623Z,77.17
2022-08-22T06:04:03.683Z,76.76
2022-08-22T06:06:39.780Z,76.69
2022-08-22T06:09:35.592Z,76.72
2022-08-22T06:12:22.006Z,76.40
2022-08-22T06:15:03.378Z,75.64
2022-08-22T06:17:49.238Z,74.49
2022-08-22T06:20:31.111Z,74.23
2022-08-22T06:23:02.731Z,74.00
2022-08-22T06:25:35.421Z,74.13
2022-08-22T06:28:09.676Z,74.08
2022-08-22T06:30:40.458Z,73.74
2022-08-22T06:33:17.537Z,73.86
2022-08-22T06:36:11.539Z,73.51
2022-08-22T06:39:23.283Z,73.16
2022-08-22T06:42:04.178Z,73.19
2022-08-22T06:44:45.443Z,72.54
2022-08-22T06:47:27.041Z,72.13
2022-08-22T06:50:21.847Z,72.14
2022-08-22T06:53:13.565Z,71.95
2022-08-22T06:56:00.050Z,72.18
2022-08-22T06:58:53.010Z,72.30
2022-08-22T07:01:28.255Z,72.06
2022-08-22T07:04:05.911Z,71.47
2022-08-22T07:06:44.202Z,71.51
2022-08-22T07:09:35.245Z,70.81
2022-08-22T07:12:16.864Z,70.45
2022-08-22T07:14:54.198Z,69.80
2022-08-22T07:17:28.045Z,69.60
2022-08-22T07:20:49.915Z,70.01
2022-08-22T07:23:45.347Z,69.54
2022-08-22T07:26:31.023Z,68.80
2022-08-22T07:29:17.761Z,69.10
2022-08-22T07:31:52.464Z,69.63
2022-08-22T07:34:55.095Z,69.70
2022-08-22T07:37:40.165Z,70.06
2022-08-22T07:40:10.006Z,70.47
2022-08-22T07:43:04.814Z,70.47
2022-08-22T07:45:52.528Z,69.84
2022-08-22T07:48:26.422Z,69.39
2022-08-22T07:51:13.909Z,68.61
2022-08-22T07:53:47.631Z,66.44
2022-08-22T07:56:26.580Z,66.65
2022-08-22T07:59:13.028Z,66.25
2022-08-22T08:01:49.091Z,65.00
2022-08-22T08:04:28.875Z,65.44
2022-08-22T08:07:02.807Z,65.53
2022-08-22T08:09:39.557Z,64.36
2022-08-22T08:12:15.713Z,65.12
2022-08-22T08:14:55.285Z,65.53
2022-08-22T08:17:32.002Z,65.67
2022-08-22T08:20:11.457Z,65.11
2022-08-22T08:22:43.717Z,64.96
2022-08-22T08:25:26.420Z,64.91
2022-08-22T08:28:19.602Z,63.85
2022-08-22T08:31:01.894Z,61.84
2022-08-22T08:33:33.228Z,62.06
2022-08-22T08:36:08.284Z,60.71
2022-08-22T08:38:56.313Z,60.51
2022-08-22T08:41:34.475Z,60.43
2022-08-22T08:44:28.658Z,60.88
2022-08-22T08:47:27.814Z,59.53
2022-08-22T08:50:22.243Z,58.36
2022-08-22T08:53:11.677Z,57.91
2022-08-22T08:55:48.361Z,57.60
2022-08-22T08:58:41.635Z,58.58
2022-08-22T09:01:51.650Z,59.44
2022-08-22T09:04:42.547Z,60.24
2022-08-22T09:07:41.719Z,60.35
2022-08-22T09:10:22.925Z,60.08
2022-08-22T09:16:05.182Z,60.16
2022-08-22T09:18:55.431Z,59.83
2022-08-22T09:21:48.945Z,59.51
2022-08-22T09:25:08.548Z,58.31
2022-08-22T09:27:56.435Z,58.19
2022-08-22T09:30:44.351Z,57.48
2022-08-22T09:33:20.193Z,57.59
2022-08-22T09:35:53.933Z,58.40
2022-08-22T09:38:47.904Z,57.74
2022-08-22T09:41:28.005Z,58.06
2022-08-22T09:44:15.078Z,57.42
2022-08-22T09:47:03.284Z,55.66
2022-08-22T09:50:06.663Z,56.90
2022-08-22T09:53:08.761Z,56.10
2022-08-22T09:56:15.647Z,56.74
2022-08-22T09:58:48.358Z,56.98
2022-08-22T10:01:44.657Z,56.33
2022-08-22T10:04:42.887Z,56.30
2022-08-22T10:07:15.175Z,55.89
2022-08-22T10:10:13.429Z,55.41
2022-08-22T10:13:13.877Z,56.40
2022-08-22T10:16:22.068Z,56.51
2022-08-22T10:19:18.189Z,56.42
2022-08-22T10:22:06.333Z,55.41
2022-08-22T10:24:48.397Z,53.95
2022-08-22T10:27:28.994Z,53.31
2022-08-22T10:30:09.753Z,51.54
2022-08-22T10:33:03.742Z,51.05
2022-08-22T10:35:40.633Z,51.55
2022-08-22T10:38:46.149Z,50.88
2022-08-22T10:41:56.823Z,50.68
2022-08-22T10:44:45.122Z,51.20
2022-08-22T10:47:21.622Z,50.87
2022-08-22T10:50:00.974Z,50.80
2022-08-22T10:52:45.094Z,50.11
2022-08-22T10:55:22.630Z,50.35
2022-08-22T10:58:03.095Z,50.12
2022-08-22T11:00:46.485Z,50.02
2022-08-22T11:03:35.623Z,47.78
2022-08-22T11:06:44.848Z,47.50
2022-08-22T11:09:20.858Z,46.06
2022-08-22T11:12:19.558Z,46.33
2022-08-22T11:15:34.687Z,47.30
2022-08-22T11:18:35.995Z,47.63
2022-08-22T11:21:31.309Z,43.92
2022-08-22T11:24:54.014Z,45.45
2022-08-22T11:27:46.821Z,43.39
2022-08-22T11:30:25.947Z,41.81
2022-08-22T11:33:11.575Z,42.50
2022-08-22T11:36:26.360Z,42.97
2022-08-22T11:39:18.071Z,42.12
2022-08-22T11:41:52.201Z,42.19
2022-08-22T11:44:34.344Z,41.90
2022-08-22T11:47:14.235Z,42.14
2022-08-22T11:49:46.634Z,41.59
2022-08-22T11:52:21.602Z,38.53
2022-08-22T11:55:02.338Z,38.88
2022-08-22T11:57:44.245Z,38.41
2022-08-22T12:00:48.967Z,39.22
2022-08-22T12:03:42.395Z,39.71
2022-08-22T12:06:32.699Z,39.25
2022-08-22T12:09:23.677Z,37.56
2022-08-22T12:12:14.346Z,37.71
2022-08-22T12:14:58.883Z,37.84
2022-08-22T12:17:50.928Z,37.17
2022-08-22T12:20:46.332Z,36.61
2022-08-22T12:23:48.990Z,36.61
2022-08-22T12:27:07.856Z,38.19
2022-08-22T12:29:58.293Z,36.83
2022-08-22T12:32:37.106Z,36.03
2022-08-22T12:35:48.071Z,34.85
2022-08-22T12:38:30.677Z,36.59
2022-08-22T12:41:27.652Z,36.52
2022-08-22T12:44:19.530Z,36.83
2022-08-22T12:47:10.464Z,38.38
2022-08-22T12:50:17.835Z,38.13
2022-08-22T12:53:07.259Z,37.60
2022-08-22T12:55:43.373Z,36.77
2022-08-22T12:58:33.857Z,37.19
2022-08-22T13:01:10.958Z,35.88
2022-08-22T13:04:13.076Z,37.53
2022-08-22T13:07:08.979Z,37.34
2022-08-22T13:09:43.310Z,36.93
2022-08-22T13:12:24.458Z,36.46
2022-08-22T13:15:01.195Z,37.34
2022-08-22T13:17:35.912Z,36.09
2022-08-22T13:20:22.830Z,36.47
2022-08-22T13:22:57.092Z,36.65
2022-08-22T13:25:30.992Z,36.38
2022-08-22T13:28:03.479Z,36.96
2022-08-22T13:30:37.976Z,36.42
2022-08-22T13:33:26.255Z,36.91
2022-08-22T13:36:02.379Z,36.49
2022-08-22T13:38:52.224Z,35.75
2022-08-22T13:41:30.889Z,35.77
2022-08-22T13:44:09.448Z,36.39
2022-08-22T13:46:58.000Z,36.78
2022-08-22T13:49:53.295Z,34.78
2022-08-22T13:52:41.346Z,36.41
2022-08-22T13:55:21.615Z,35.81
2022-08-22T13:58:24.856Z,35.86
2022-08-22T14:01:16.110Z,37.01
2022-08-22T14:04:00.852Z,36.03
2022-08-22T14:06:57.528Z,36.05
2022-08-22T14:09:56.457Z,35.50
2022-08-22T14:12:33.701Z,36.39
2022-08-22T14:15:44.791Z,35.50
2022-08-22T14:18:30.045Z,35.15
2022-08-22T14:21:27.944Z,35.23
2022-08-22T14:24:15.001Z,36.02
2022-08-22T14:26:57.810Z,35.69
2022-08-22T14:29:34.744Z,36.74
2022-08-22T14:32:26.769Z,35.46
2022-08-22T14:35:05.089Z,36.32
2022-08-22T14:37:43.538Z,37.31
2022-08-22T14:40:26.358Z,37.36
2022-08-22T14:43:16.877Z,38.08
2022-08-22T14:46:02.917Z,38.77
2022-08-22T14:49:08.008Z,38.85
2022-08-22T14:51:47.961Z,39.51
2022-08-22T14:54:23.428Z,40.11
2022-08-22T14:57:01.232Z,40.93
2022-08-22T14:59:45.821Z,40.91
2022-08-22T15:02:30.085Z,40.08
2022-08-22T15:05:21.210Z,40.73
2022-08-22T15:08:00.516Z,40.26
2022-08-22T15:10:35.860Z,40.88
2022-08-22T15:13:09.213Z,41.92
2022-08-22T15:15:54.969Z,42.32
2022-08-22T15:18:29.274Z,41.79
2022-08-22T15:21:31.509Z,41.07
2022-08-22T15:24:10.872Z,41.75
2022-08-22T15:26:51.746Z,42.15
2022-08-22T15:29:23.330Z,42.22
2022-08-22T15:31:57.733Z,42.69
2022-08-22T15:34:33.015Z,43.07
2022-08-22T15:37:21.684Z,43.55
2022-08-22T15:40:12.058Z,43.87
2022-08-22T15:42:51.369Z,45.48
2022-08-22T15:45:38.624Z,46.43
2022-08-22T15:48:26.362Z,47.16
2022-08-22T15:51:02.604Z,47.93
2022-08-22T15:54:02.048Z,48.83
2022-08-22T15:56:56.351Z,49.73
2022-08-22T15:59:54.138Z,50.43
2022-08-22T16:02:35.720Z,51.04
2022-08-22T16:05:09.017Z,50.85
2022-08-22T16:07:49.967Z,49.81
2022-08-22T16:10:24.712Z,50.38
2022-08-22T16:13:15.046Z,50.14
2022-08-22T16:15:56.374Z,49.76
2022-08-22T16:18:37.736Z,48.81
2022-08-22T16:21:24.302Z,49.09
2022-08-22T16:23:57.565Z,49.51
2022-08-22T16:26:43.369Z,50.48
2022-08-22T16:29:17.823Z,50.10
2022-08-22T16:31:49.153Z,49.84
2022-08-22T16:34:18.412Z,50.14
2022-08-22T16:37:15.016Z,50.20
2022-08-22T16:39:48.844Z,50.59
2022-08-22T16:42:22.195Z,51.28
2022-08-22T16:45:05.246Z,51.74
2022-08-22T16:47:36.576Z,52.55
2022-08-22T16:50:10.063Z,54.23
2022-08-22T16:52:51.318Z,54.09
2022-08-22T16:55:29.875Z,54.28
2022-08-22T16:58:22.177Z,54.19
2022-08-22T17:01:09.865Z,54.43
2022-08-22T17:04:14.657Z,54.38
2022-08-22T17:06:49.584Z,54.41
2022-08-22T17:09:40.591Z,54.71
2022-08-22T17:12:25.468Z,54.61
2022-08-22T17:15:04.365Z,54.90
2022-08-22T17:17:49.257Z,55.29
2022-08-22T17:20:42.624Z,55.65
2022-08-22T17:23:43.493Z,56.17
2022-08-22T17:26:39.012Z,56.56
2022-08-22T17:29:16.431Z,56.96
2022-08-22T17:31:55.921Z,57.57
2022-08-22T17:35:12.994Z,57.89
2022-08-22T17:38:28.577Z,58.31
2022-08-22T17:41:09.071Z,58.71
2022-08-22T17:43:53.070Z,58.44
2022-08-22T17:46:36.029Z,59.03
2022-08-22T17:49:46.447Z,59.69
2022-08-22T17:52:24.848Z,60.06
2022-08-22T17:55:02.613Z,60.42
2022-08-22T17:57:34.559Z,60.91
2022-08-22T18:00:36.383Z,61.08
2022-08-22T18:03:15.966Z,61.45
2022-08-22T18:05:52.944Z,61.50
2022-08-22T18:11:56.453Z,61.62
2022-08-22T18:15:01.093Z,61.90
2022-08-22T18:17:45.303Z,62.27
2022-08-22T18:20:28.403Z,62.78
2022-08-22T18:23:36.316Z,62.79
2022-08-22T18:26:32.023Z,63.30
2022-08-22T18:29:12.428Z,63.21
2022-08-22T18:32:02.497Z,63.09
2022-08-22T18:34:43.190Z,63.13
2022-08-22T18:37:42.177Z,62.93
2022-08-22T18:40:35.313Z,62.73
2022-08-22T18:43:20.312Z,62.72
2022-08-22T18:45:49.499Z,63.08
2022-08-22T18:48:20.784Z,63.55
2022-08-22T18:50:50.478Z,63.53
2022-08-22T18:53:46.590Z,63.42
2022-08-22T18:56:39.292Z,63.68
2022-08-22T18:59:32.262Z,64.26
2022-08-22T19:02:20.940Z,64.33
2022-08-22T19:05:13.102Z,64.51
2022-08-22T19:07:58.414Z,64.96
2022-08-22T19:10:38.052Z,64.91
2022-08-22T19:13:39.521Z,65.01
2022-08-22T19:16:51.761Z,65.84
2022-08-22T19:20:18.321Z,66.07
2022-08-22T19:22:51.109Z,65.80
2022-08-22T19:25:27.317Z,65.71
2022-08-22T19:28:10.324Z,66.07
2022-08-22T19:30:44.644Z,66.18
2022-08-22T19:33:38.872Z,66.09
2022-08-22T19:36:31.835Z,65.89
2022-08-22T19:39:12.927Z,65.94
2022-08-22T19:41:53.225Z,65.92
2022-08-22T19:44:22.616Z,65.82
2022-08-22T19:47:18.514Z,65.99
2022-08-22T19:50:13.812Z,66.10
2022-08-22T19:52:53.762Z,66.07
2022-08-22T19:55:38.797Z,66.10
2022-08-22T19:58:13.412Z,66.65
2022-08-22T20:00:54.563Z,67.78
2022-08-22T20:03:31.880Z,67.48
2022-08-22T20:06:43.889Z,67.51
2022-08-22T20:09:33.134Z,67.54
2022-08-22T20:12:23.277Z,67.57
2022-08-22T20:14:52.981Z,67.57
2022-08-22T20:17:25.287Z,67.43
2022-08-22T20:20:18.712Z,67.54
2022-08-22T20:23:08.934Z,67.63
2022-08-22T20:25:42.900Z,67.87
2022-08-22T20:28:51.093Z,67.86
2022-08-22T20:31:25.089Z,68.30
2022-08-22T20:34:11.020Z,68.49
2022-08-22T20:36:44.864Z,68.52
2022-08-22T20:39:35.680Z,68.38
2022-08-22T20:42:09.750Z,68.48
2022-08-22T20:44:45.988Z,68.30
2022-08-22T20:47:40.773Z,68.20
2022-08-22T20:50:12.480Z,68.17
2022-08-22T20:52:51.793Z,68.23
2022-08-22T20:55:27.346Z,68.54
2022-08-22T20:58:19.445Z,68.78
2022-08-22T21:00:52.196Z,68.93
2022-08-22T21:03:46.478Z,68.95
2022-08-22T21:06:29.679Z,68.91
2022-08-22T21:09:54.061Z,68.62
2022-08-22T21:12:24.562Z,68.64
2022-08-22T21:14:53.163Z,68.85
2022-08-22T21:17:34.504Z,68.82
2022-08-22T21:20:23.082Z,68.86
2022-08-22T21:22:53.333Z,68.83
2022-08-22T21:25:23.370Z,69.02
2022-08-22T21:27:56.287Z,69.27
2022-08-22T21:30:28.645Z,69.30
2022-08-22T21:32:58.619Z,69.23
2022-08-22T21:35:33.113Z,69.20
2022-08-22T21:38:03.272Z,69.37
2022-08-22T21:40:38.197Z,69.43
2022-08-22T21:43:14.034Z,69.55
2022-08-22T21:45:45.051Z,69.53
2022-08-22T21:48:46.679Z,69.03
2022-08-22T21:51:23.153Z,69.57
2022-08-22T21:54:18.408Z,69.43
2022-08-22T21:56:50.234Z,70.01
2022-08-22T21:59:52.309Z,69.90
2022-08-22T22:02:41.348Z,69.73
2022-08-22T22:05:14.168Z,69.73
2022-08-22T22:07:47.314Z,69.89
2022-08-22T22:10:20.240Z,70.48
2022-08-22T22:12:52.379Z,70.25
2022-08-22T22:15:24.836Z,70.31
2022-08-22T22:17:55.324Z,70.04
2022-08-22T22:20:27.992Z,70.07
2022-08-22T22:22:57.404Z,69.95
2022-08-22T22:25:39.766Z,69.86
2022-08-22T22:28:29.168Z,69.85
2022-08-22T22:30:58.980Z,70.36
2022-08-22T22:33:32.660Z,70.81
2022-08-22T22:36:09.688Z,70.86
2022-08-22T22:38:40.769Z,70.51
2022-08-22T22:41:10.188Z,70.79
2022-08-22T22:43:39.111Z,70.52
2022-08-22T22:46:09.616Z,70.80
2022-08-22T22:48:39.426Z,70.63
2022-08-22T22:51:10.978Z,70.31
2022-08-22T22:53:42.903Z,70.44
2022-08-22T22:56:22.625Z,70.44
2022-08-22T22:58:59.222Z,70.48
2022-08-22T23:01:34.575Z,70.84
2022-08-22T23:04:05.852Z,70.41
2022-08-22T23:06:35.582Z,70.82
2022-08-22T23:09:06.513Z,71.25
2022-08-22T23:11:36.694Z,71.42
2022-08-22T23:14:06.214Z,71.08
2022-08-22T23:16:37.345Z,71.19
2022-08-22T23:19:12.890Z,71.12
2022-08-22T23:21:44.927Z,71.00
2022-08-22T23:24:15.494Z,71.21
2022-08-22T23:26:45.260Z,71.36
2022-08-22T23:29:15.832Z,71.22
2022-08-22T23:32:00.561Z,71.28
2022-08-22T23:34:35.217Z,71.77
2022-08-22T23:37:07.013Z,71.93
2022-08-22T23:39:38.485Z,71.73
2022-08-22T23:42:10.506Z,71.67
2022-08-22T23:44:41.936Z,72.11
2022-08-22T23:47:12.319Z,72.37
2022-08-22T23:49:43.490Z,72.06
2022-08-22T23:52:14.455Z,72.11
2022-08-22T23:54:43.482Z,72.07
2022-08-22T23:57:14.892Z,72.19
2022-08-22T23:59:46.414Z,72.08
